Time;durP1;ratioP1;P1;durP2;ratioP2;P2;SDS_P1;SDS_P2;PMS_P1;PMS_P2;Temp;Humidity;BMP_temperature;BMP_pressure;BME280_temperature;BME280_humidity;BME280_pressure;Samples;Min_cycle;Max_cycle;Signal;HPM_P1;HPM_P2
2023/08/01 06:30:47;;;;;;;7.10;6.40;;;;;;;23.44;97.68;99610.53;112419;1250;23052;-55
2023/08/01 06:33:14;;;;;;;7.10;6.40;;;;;;;23.54;96.70;99601.02;111008;1250;23197;-46
2023/08/01 06:35:41;;;;;;;7.10;6.40;;;;;;;23.67;96.70;99602.88;110855;1250;22198;-56
2023/08/01 06:38:08;;;;;;;10.20;6.70;;;;;;;23.80;95.12;99597.56;110596;1250;24213;-47
2023/08/01 06:40:35;;;;;;;7.00;6.30;;;;;;;23.97;93.68;99594.85;110246;1250;22524;-48
2023/08/01 06:43:02;;;;;;;7.00;6.00;;;;;;;24.08;92.71;99596.76;110360;1250;22501;-47
2023/08/01 06:45:29;;;;;;;9.00;6.30;;;;;;;24.20;91.87;99597.37;110548;1250;22505;-57
2023/08/01 06:47:57;;;;;;;12.90;9.20;;;;;;;24.38;91.25;99594.98;111988;1250;23092;-48
2023/08/01 06:50:24;;;;;;;9.40;7.60;;;;;;;24.43;90.49;99594.13;112856;1250;23113;-47
2023/08/01 06:52:51;;;;;;;9.60;6.80;;;;;;;24.36;90.53;99594.18;111660;1250;22405;-47
2023/08/01 06:55:18;;;;;;;11.40;6.20;;;;;;;24.31;90.92;99593.77;112836;1250;22399;-57
2023/08/01 06:57:45;;;;;;;9.90;6.00;;;;;;;24.31;91.04;99595.73;112855;1250;22485;-56
2023/08/01 07:00:12;;;;;;;10.70;7.20;;;;;;;24.37;90.63;99589.14;112855;1250;22429;-47
2023/08/01 07:02:39;;;;;;;14.90;6.90;;;;;;;24.47;91.03;99587.92;111481;1250;22562;-48
2023/08/01 07:05:07;;;;;;;8.10;7.20;;;;;;;24.58;91.07;99587.31;112754;1250;22194;-47
2023/08/01 07:07:34;;;;;;;12.30;7.00;;;;;;;24.69;90.75;99583.39;112832;1250;22397;-48
2023/08/01 07:10:01;;;;;;;9.10;6.60;;;;;;;24.79;90.28;99583.41;112828;1250;22489;-48
2023/08/01 07:12:28;;;;;;;7.70;6.50;;;;;;;24.86;89.16;99585.75;112827;1250;22366;-48
2023/08/01 07:14:55;;;;;;;10.70;6.80;;;;;;;24.87;88.51;99586.56;112850;1250;22359;-47
2023/08/01 07:17:22;;;;;;;8.40;6.80;;;;;;;24.83;88.15;99591.29;112820;1250;22429;-46
2023/08/01 07:19:49;;;;;;;13.60;6.30;;;;;;;24.78;88.12;99588.27;112815;1250;23214;-46
2023/08/01 07:22:16;;;;;;;12.90;7.30;;;;;;;24.75;88.55;99593.80;111161;1250;22634;-47
2023/08/01 07:24:43;;;;;;;8.70;6.20;;;;;;;24.77;88.53;99594.80;111052;1250;22484;-47
2023/08/01 07:27:11;;;;;;;8.00;5.60;;;;;;;24.78;88.12;99592.73;112843;1250;22227;-48
2023/08/01 07:29:39;;;;;;;7.90;6.70;;;;;;;24.80;87.98;99590.97;112952;1249;22293;-47
2023/08/01 07:32:18;;;;;;;7.00;6.30;;;;;;;24.84;87.63;99588.23;112822;1249;22449;-48
2023/08/01 07:34:46;;;;;;;8.60;6.30;;;;;;;24.90;87.05;99588.63;111538;1249;23147;-47
2023/08/01 07:37:12;;;;;;;11.00;6.70;;;;;;;24.95;86.14;99586.14;110530;1249;22530;-47
2023/08/01 07:39:39;;;;;;;6.10;5.60;;;;;;;24.98;85.69;99585.27;112642;1249;23024;-45
2023/08/01 07:42:06;;;;;;;6.00;5.40;;;;;;;25.02;84.62;99582.64;112223;1249;26440;-43
2023/08/01 07:44:33;;;;;;;6.90;5.50;;;;;;;25.10;83.94;99579.80;110226;1249;25282;-44
2023/08/01 07:47:01;;;;;;;9.30;6.00;;;;;;;25.19;83.32;99578.81;111485;1249;23332;-51
2023/08/01 07:49:28;;;;;;;9.00;5.70;;;;;;;25.22;83.49;99574.83;110909;1249;22531;-44
2023/08/01 07:51:55;;;;;;;22.20;6.30;;;;;;;25.23;82.90;99577.12;111320;1249;25306;-45
2023/08/01 07:54:24;;;;;;;7.90;6.50;;;;;;;25.17;81.97;99577.86;111166;1249;22491;-43
2023/08/01 07:56:51;;;;;;;17.50;5.90;;;;;;;25.08;81.93;99578.17;110611;1249;22547;-48
2023/08/01 07:59:18;;;;;;;26.40;6.70;;;;;;;25.02;82.12;99580.48;112957;1249;22139;-49
2023/08/01 08:01:44;;;;;;;8.80;6.50;;;;;;;25.01;82.29;99577.75;112984;1249;22361;-44
2023/08/01 08:04:12;;;;;;;10.60;6.50;;;;;;;25.02;82.65;99573.93;112770;1249;22491;-50
2023/08/01 08:06:40;;;;;;;10.20;6.30;;;;;;;25.06;82.45;99575.77;111207;1249;24221;-45
2023/08/01 08:09:08;;;;;;;16.70;8.10;;;;;;;25.13;81.86;99574.42;110395;1249;23335;-45
2023/08/01 08:11:35;;;;;;;9.80;8.70;;;;;;;25.22;81.25;99575.21;112266;1249;22530;-50
2023/08/01 08:14:02;;;;;;;9.80;7.40;;;;;;;25.33;80.75;99574.58;112173;1249;22991;-43
2023/08/01 08:16:29;;;;;;;10.20;7.80;;;;;;;25.49;80.11;99575.92;110786;1249;22522;-43
2023/08/01 08:18:56;;;;;;;10.60;7.30;;;;;;;25.65;79.62;99572.59;110566;1249;22526;-45
2023/08/01 08:21:24;;;;;;;9.20;8.30;;;;;;;25.76;78.78;99577.52;110657;1249;25282;-44
2023/08/01 08:23:51;;;;;;;13.40;9.00;;;;;;;25.81;79.09;99575.73;110802;1249;22532;-44
2023/08/01 08:26:18;;;;;;;10.00;9.00;;;;;;;25.83;79.69;99576.10;110269;1249;22515;-44
2023/08/01 08:28:45;;;;;;;11.40;9.60;;;;;;;25.83;79.68;99573.76;110390;1249;22647;-44
2023/08/01 08:31:12;;;;;;;9.70;8.70;;;;;;;25.90;79.73;99568.45;110884;1249;22277;-45
2023/08/01 08:33:39;;;;;;;10.80;9.20;;;;;;;26.04;79.12;99569.72;109986;1249;22497;-46
2023/08/01 08:36:06;;;;;;;11.30;10.10;;;;;;;26.18;78.25;99573.99;110080;1249;22629;-43
2023/08/01 08:38:33;;;;;;;11.80;9.20;;;;;;;26.32;77.74;99571.46;110355;1240;24181;-43
2023/08/01 08:41:03;;;;;;;15.80;9.20;;;;;;;26.43;76.86;99573.20;110572;1249;22607;-43
2023/08/01 08:43:31;;;;;;;13.20;9.00;;;;;;;26.44;76.53;99570.22;110095;1249;26607;-46
2023/08/01 08:45:58;;;;;;;11.60;9.70;;;;;;;26.46;76.76;99567.05;110210;1249;25540;-50
2023/08/01 08:48:25;;;;;;;13.90;9.20;;;;;;;26.48;76.02;99568.84;110726;1249;22578;-44
2023/08/01 08:50:52;;;;;;;10.50;9.40;;;;;;;26.54;75.62;99559.27;110681;1249;23404;-44
2023/08/01 08:53:19;;;;;;;11.70;8.80;;;;;;;26.70;74.38;99558.90;110917;1249;22495;-44
2023/08/01 08:55:46;;;;;;;8.60;7.00;;;;;;;26.89;72.82;99558.33;112045;1249;22523;-50
2023/08/01 08:58:14;;;;;;;7.60;5.90;;;;;;;27.01;70.17;99556.40;110999;1249;22556;-49
2023/08/01 09:00:41;;;;;;;11.80;6.50;;;;;;;27.08;67.83;99552.23;110046;1249;22596;-43
2023/08/01 09:03:08;;;;;;;7.70;6.10;;;;;;;27.09;67.27;99551.59;110852;1249;25274;-43
2023/08/01 09:05:48;;;;;;;13.80;6.40;;;;;;;27.22;67.45;99549.27;111006;1241;24216;-45
2023/08/01 09:08:17;;;;;;;6.40;5.60;;;;;;;27.38;66.30;99552.95;110945;1249;24182;-43
2023/08/01 09:10:44;;;;;;;6.10;5.50;;;;;;;27.44;64.96;99550.67;112756;1249;23093;-44
2023/08/01 09:13:11;;;;;;;6.20;4.70;;;;;;;27.54;64.97;99548.42;112758;1249;22474;-46
2023/08/01 09:15:40;;;;;;;4.20;3.80;;;;;;;27.69;64.57;99549.02;112962;1249;22787;-44
2023/08/01 09:18:07;;;;;;;7.80;4.20;;;;;;;27.80;63.18;99549.70;112101;1249;22526;-44
2023/08/01 09:20:44;;;;;;;6.30;4.00;;;;;;;27.80;62.28;99547.36;112293;1249;24242;-43
2023/08/01 09:23:11;;;;;;;5.80;5.20;;;;;;;27.85;62.71;99543.95;110353;1249;23032;-50
2023/08/01 09:25:39;;;;;;;9.50;5.80;;;;;;;27.93;62.78;99540.92;110501;1249;22511;-44
2023/08/01 09:28:16;;;;;;;7.20;6.50;;;;;;;27.99;62.76;99539.71;110410;1249;22516;-43
2023/08/01 09:30:47;;;;;;;6.30;5.60;;;;;;;28.06;62.59;99540.59;112991;1249;22435;-46
2023/08/01 09:33:15;;;;;;;7.40;6.60;;;;;;;28.18;62.31;99531.86;112977;1249;22349;-44
2023/08/01 09:35:44;;;;;;;7.00;5.80;;;;;;;28.32;61.79;99532.45;112671;1249;22509;-49
2023/08/01 09:38:16;;;;;;;6.10;5.50;;;;;;;28.36;61.08;99529.80;111739;1249;23257;-49
2023/08/01 09:40:44;;;;;;;6.80;5.50;;;;;;;28.33;61.06;99528.98;111111;1249;22504;-50
2023/08/01 09:43:12;;;;;;;10.30;5.70;;;;;;;28.39;61.14;99524.46;111461;1249;23381;-44
2023/08/01 09:45:52;;;;;;;6.30;5.70;;;;;;;28.50;60.27;99521.56;112779;1249;22413;-45
2023/08/01 09:48:24;;;;;;;13.00;6.00;;;;;;;28.61;59.21;99521.11;112994;1249;23352;-44
2023/08/01 09:50:53;;;;;;;10.90;6.20;;;;;;;28.60;58.65;99519.23;112554;1249;25264;-42
2023/08/01 09:53:20;;;;;;;8.50;6.50;;;;;;;28.59;58.41;99514.11;112917;1249;23437;-44
2023/08/01 09:55:47;;;;;;;13.50;8.60;;;;;;;28.59;58.17;99509.15;112981;1249;22377;-50
2023/08/01 09:58:13;;;;;;;15.90;7.90;;;;;;;28.55;58.47;99503.19;112524;1249;26607;-45
2023/08/01 10:00:40;;;;;;;14.20;8.50;;;;;;;28.59;58.70;99497.61;111469;1249;22491;-43
2023/08/01 10:03:07;;;;;;;13.20;9.30;;;;;;;28.72;58.29;99498.16;110526;1249;22497;-44
2023/08/01 10:05:34;;;;;;;12.40;9.00;;;;;;;28.80;57.74;99492.73;112442;1249;22472;-44
2023/08/01 10:08:02;;;;;;;10.90;7.90;;;;;;;28.86;57.18;99486.45;110335;1249;22511;-44
2023/08/01 10:10:29;;;;;;;10.50;7.70;;;;;;;28.87;54.70;99484.20;110391;1249;22526;-43
2023/08/01 10:12:57;;;;;;;10.50;7.50;;;;;;;28.84;54.31;99481.10;110323;1249;23239;-44
2023/08/01 10:15:25;;;;;;;10.40;6.70;;;;;;;28.82;53.79;99477.51;112998;1249;22380;-44
2023/08/01 10:17:52;;;;;;;6.80;6.00;;;;;;;28.83;53.36;99482.10;112964;1249;22811;-44
2023/08/01 10:20:21;;;;;;;13.80;7.80;;;;;;;28.81;52.98;99480.13;112976;1249;22919;-44
2023/08/01 10:22:49;;;;;;;7.60;6.40;;;;;;;28.71;53.10;99475.44;112765;1249;23203;-44
2023/08/01 10:25:17;;;;;;;8.50;6.20;;;;;;;28.66;52.69;99470.38;112534;1249;22401;-44
2023/08/01 10:27:44;;;;;;;7.80;5.90;;;;;;;28.68;52.79;99469.65;112773;1249;22371;-45
2023/08/01 10:30:11;;;;;;;9.90;6.10;;;;;;;28.80;52.60;99465.48;113000;1249;22484;-44
2023/08/01 10:32:39;;;;;;;16.50;7.60;;;;;;;28.97;52.52;99466.48;112987;1249;22370;-50
2023/08/01 10:35:07;;;;;;;12.20;6.80;;;;;;;29.13;52.30;99465.38;112958;1249;22511;-45
2023/08/01 10:37:41;;;;;;;13.10;7.40;;;;;;;29.38;51.51;99461.56;112964;1249;22356;-45
2023/08/01 10:40:08;;;;;;;7.60;6.40;;;;;;;29.67;51.21;99457.23;112979;1249;23630;-45
2023/08/01 10:42:39;;;;;;;11.50;5.70;;;;;;;29.93;50.51;99455.02;111754;1249;22491;-51
2023/08/01 10:45:08;;;;;;;10.40;6.20;;;;;;;30.25;49.50;99451.61;110826;1249;22508;-50
2023/08/01 10:47:35;;;;;;;14.00;6.30;;;;;;;30.59;48.76;99454.28;110225;1249;22738;-48
2023/08/01 10:50:03;;;;;;;8.50;6.80;;;;;;;30.93;47.76;99450.48;110222;1249;22574;-52
2023/08/01 10:52:30;;;;;;;7.10;5.50;;;;;;;31.25;46.93;99450.46;110177;1249;22556;-45
2023/08/01 10:54:59;;;;;;;8.60;6.20;;;;;;;31.41;45.88;99450.27;110372;1249;23124;-44
2023/08/01 10:57:30;;;;;;;7.30;5.80;;;;;;;31.30;45.31;99446.90;110967;1249;22576;-50
2023/08/01 10:59:57;;;;;;;7.30;5.70;;;;;;;31.14;45.19;99452.52;110337;1249;25415;-51
2023/08/01 11:02:27;;;;;;;11.80;6.00;;;;;;;31.04;45.31;99446.94;110585;1249;25323;-47
2023/08/01 11:05:02;;;;;;;6.20;5.60;;;;;;;30.94;45.11;99449.86;110429;1249;22513;-51
2023/08/01 11:07:29;;;;;;;5.90;5.30;;;;;;;30.77;44.85;99443.47;110469;1249;23224;-50
2023/08/01 11:10:06;;;;;;;9.90;5.80;;;;;;;30.60;45.19;99436.77;110573;1249;24228;-46
2023/08/01 11:12:34;;;;;;;10.00;5.70;;;;;;;30.51;45.85;99431.79;110241;1249;25425;-43
2023/08/01 11:15:01;;;;;;;6.10;5.50;;;;;;;30.49;45.31;99431.94;110440;1249;22497;-45
2023/08/01 11:17:29;;;;;;;7.10;5.60;;;;;;;30.42;45.31;99432.08;111696;1249;22420;-46
2023/08/01 11:20:07;;;;;;;9.20;5.90;;;;;;;30.25;45.17;99430.80;112586;1249;22501;-45
2023/08/01 11:22:34;;;;;;;7.50;5.70;;;;;;;29.99;46.03;99420.27;110367;1249;22487;-43
2023/08/01 11:25:02;;;;;;;7.10;5.60;;;;;;;29.88;46.50;99413.63;110982;1249;22413;-49
2023/08/01 11:27:29;;;;;;;7.60;6.40;;;;;;;29.83;46.92;99405.98;111522;1249;25466;-50
2023/08/01 11:29:56;;;;;;;6.70;5.50;;;;;;;29.92;47.09;99396.86;109905;1249;22534;-51
2023/08/01 11:32:33;;;;;;;5.50;5.00;;;;;;;30.01;46.53;99392.96;110203;1249;22984;-46
2023/08/01 11:35:01;;;;;;;6.40;5.60;;;;;;;30.01;46.69;99388.34;112475;1249;22249;-45
2023/08/01 11:37:28;;;;;;;8.40;5.80;;;;;;;29.91;46.66;99383.13;112825;1249;22510;-44
2023/08/01 11:39:55;;;;;;;9.20;5.80;;;;;;;29.70;47.08;99377.73;111186;1249;22512;-44
2023/08/01 11:42:22;;;;;;;5.70;5.10;;;;;;;29.55;47.14;99377.34;110496;1249;22488;-44
2023/08/01 11:44:49;;;;;;;9.30;5.30;;;;;;;29.39;47.21;99378.09;110353;1249;24609;-45
2023/08/01 11:47:17;;;;;;;8.60;5.80;;;;;;;29.32;47.73;99376.43;110171;1249;22612;-51
2023/08/01 11:49:48;;;;;;;6.40;5.80;;;;;;;29.29;47.64;99379.54;110394;1249;25327;-50
2023/08/01 11:52:25;;;;;;;7.30;5.60;;;;;;;29.27;47.99;99377.45;110378;1249;25336;-50
2023/08/01 11:54:52;;;;;;;7.80;4.90;;;;;;;29.26;47.71;99383.58;109973;1249;24267;-50
2023/08/01 11:57:19;;;;;;;6.30;5.60;;;;;;;29.25;47.81;99389.65;110381;1249;22520;-44
2023/08/01 11:59:49;;;;;;;6.10;5.40;;;;;;;29.24;47.99;99393.14;110518;1249;22527;-50
2023/08/01 12:02:27;;;;;;;6.20;5.40;;;;;;;29.22;47.82;99401.43;110151;1249;22721;-61
2023/08/01 12:04:54;;;;;;;7.10;5.40;;;;;;;29.13;47.91;99406.36;110552;1249;22630;-59
2023/08/01 12:07:24;;;;;;;5.30;4.60;;;;;;;29.00;48.00;99419.95;110405;1249;22474;-48
2023/08/01 12:09:58;;;;;;;4.30;3.90;;;;;;;28.79;49.24;99429.50;111128;1249;22478;-58
2023/08/01 12:12:28;;;;;;;5.20;3.10;;;;;;;28.49;52.05;99435.73;111730;1249;22493;-60
2023/08/01 12:14:55;;;;;;;6.40;3.10;;;;;;;28.15;53.85;99443.72;111572;1249;22942;-59
2023/08/01 12:17:22;;;;;;;7.40;2.90;;;;;;;27.84;55.77;99443.36;110444;1249;22511;-59
2023/08/01 12:19:50;;;;;;;3.00;2.60;;;;;;;27.61;57.62;99442.20;110348;1249;22544;-59
2023/08/01 12:22:17;;;;;;;3.00;2.70;;;;;;;27.44;58.29;99439.00;111466;1249;22411;-49
2023/08/01 12:24:44;;;;;;;3.20;2.90;;;;;;;27.25;58.63;99435.70;112790;1242;24084;-59
2023/08/01 12:27:11;;;;;;;5.90;2.80;;;;;;;27.11;59.57;99439.59;111340;1249;25193;-59
2023/08/01 12:29:38;;;;;;;3.60;2.90;;;;;;;27.00;60.17;99444.67;110516;1249;22490;-59
2023/08/01 12:32:06;;;;;;;9.90;2.80;;;;;;;26.90;61.13;99447.11;110238;1249;25300;-60
2023/08/01 12:34:34;;;;;;;3.30;2.80;;;;;;;26.77;61.93;99451.59;110561;1249;22520;-59
2023/08/01 12:37:01;;;;;;;5.60;3.50;;;;;;;26.62;62.43;99456.23;110597;1249;22477;-50
2023/08/01 12:39:28;;;;;;;3.30;2.80;;;;;;;26.45;63.25;99455.05;111252;1249;22362;-50
2023/08/01 12:41:55;;;;;;;3.20;2.90;;;;;;;26.31;63.95;99460.77;110270;1249;22522;-49
2023/08/01 12:44:21;;;;;;;3.10;2.70;;;;;;;26.19;64.73;99452.98;112456;1249;22425;-49
2023/08/01 12:46:49;;;;;;;4.70;2.70;;;;;;;26.13;65.78;99450.02;111616;1249;22436;-61
2023/08/01 12:49:18;;;;;;;3.30;2.90;;;;;;;26.09;66.06;99448.21;112946;1249;22364;-61
2023/08/01 12:51:45;;;;;;;11.60;2.80;;;;;;;26.01;66.84;99444.14;112317;1249;22525;-60
2023/08/01 12:54:12;;;;;;;9.00;3.10;;;;;;;25.90;67.71;99444.09;112162;1249;22493;-48
2023/08/01 12:56:39;;;;;;;6.40;3.10;;;;;;;25.77;68.43;99433.11;110555;1249;22505;-61
2023/08/01 12:59:06;;;;;;;6.50;2.90;;;;;;;25.67;69.11;99427.11;110293;1249;22670;-60
2023/08/01 13:01:33;;;;;;;7.20;2.40;;;;;;;25.59;69.80;99426.95;111993;1249;22513;-59
2023/08/01 13:04:01;;;;;;;7.90;3.30;;;;;;;25.54;69.91;99422.59;110985;1249;22506;-48
2023/08/01 13:06:28;;;;;;;9.70;3.00;;;;;;;25.47;67.92;99418.25;112995;1249;23514;-48
2023/08/01 13:08:55;;;;;;;11.20;3.50;;;;;;;25.40;67.42;99417.31;112928;1249;22453;-60
2023/08/01 13:11:22;;;;;;;5.30;3.60;;;;;;;25.36;66.97;99419.08;110768;1249;22595;-60
2023/08/01 13:13:49;;;;;;;4.40;3.00;;;;;;;25.33;67.10;99413.61;112263;1249;23585;-59
2023/08/01 13:16:16;;;;;;;7.60;3.10;;;;;;;25.31;67.07;99411.08;112993;1249;22215;-48
2023/08/01 13:18:43;;;;;;;6.80;3.20;;;;;;;25.31;66.93;99410.00;111074;1249;25485;-60
2023/08/01 13:21:12;;;;;;;9.40;3.50;;;;;;;25.31;67.03;99409.86;110231;1249;24168;-49
2023/08/01 13:23:39;;;;;;;12.60;3.10;;;;;;;25.29;66.98;99412.51;110424;1249;24238;-60
2023/08/01 13:26:07;;;;;;;6.60;2.80;;;;;;;25.30;66.99;99417.99;110288;1249;22500;-60
2023/08/01 13:28:34;;;;;;;5.80;3.30;;;;;;;25.34;67.03;99422.45;110629;1249;22513;-49
2023/08/01 13:31:00;;;;;;;5.30;3.80;;;;;;;25.42;68.12;99429.16;110463;1249;23859;-50
2023/08/01 13:33:28;;;;;;;6.50;3.30;;;;;;;25.51;68.90;99434.91;111824;1249;23556;-51
2023/08/01 13:35:55;;;;;;;4.50;3.00;;;;;;;25.55;69.69;99436.89;111994;1249;22639;-50
2023/08/01 13:38:22;;;;;;;4.40;3.10;;;;;;;25.58;70.08;99435.66;112332;1249;23287;-48
2023/08/01 13:40:49;;;;;;;5.40;3.30;;;;;;;25.64;69.86;99434.29;110637;1249;23141;-50
2023/08/01 13:43:16;;;;;;;4.70;3.10;;;;;;;25.76;69.44;99427.52;110655;1234;24358;-49
2023/08/01 13:45:43;;;;;;;3.00;2.50;;;;;;;25.93;68.56;99422.10;110187;1249;25345;-48
2023/08/01 13:48:10;;;;;;;5.30;3.40;;;;;;;26.13;68.21;99419.68;110955;1249;22512;-49
2023/08/01 13:50:37;;;;;;;4.20;3.20;;;;;;;26.38;69.33;99414.30;110491;1249;22741;-48
2023/08/01 13:53:05;;;;;;;6.20;2.90;;;;;;;26.62;69.12;99409.52;110104;1249;24232;-49
2023/08/01 13:55:33;;;;;;;3.20;2.70;;;;;;;26.87;68.08;99405.89;110412;1249;26470;-49
2023/08/01 13:58:00;;;;;;;6.10;2.90;;;;;;;27.12;66.37;99401.88;110282;1249;24193;-50
2023/08/01 14:00:27;;;;;;;4.40;2.70;;;;;;;27.35;65.54;99389.55;110299;1249;22515;-49
2023/08/01 14:02:55;;;;;;;3.60;2.80;;;;;;;27.64;63.93;99381.98;112279;1249;22853;-49
2023/08/01 14:05:26;;;;;;;2.40;2.20;;;;;;;27.91;63.53;99379.27;111964;1234;26630;-50
2023/08/01 14:07:53;;;;;;;3.40;2.70;;;;;;;28.21;62.76;99380.46;112225;1242;23245;-49
2023/08/01 14:10:21;;;;;;;6.50;2.80;;;;;;;28.36;61.13;99378.79;112921;1249;22381;-49
2023/08/01 14:12:48;;;;;;;2.40;2.20;;;;;;;28.40;60.43;99379.36;112932;1249;22416;-60
2023/08/01 14:15:15;;;;;;;4.50;2.90;;;;;;;28.34;61.76;99383.30;111081;1249;25308;-62
2023/08/01 14:17:42;;;;;;;3.40;2.90;;;;;;;28.27;62.55;99385.08;109973;1249;25491;-59
2023/08/01 14:20:10;;;;;;;4.20;2.80;;;;;;;28.18;61.83;99385.92;110287;1249;25384;-49
